Time;durP1;ratioP1;P1;durP2;ratioP2;P2;SDS_P1;SDS_P2;PMS_P1;PMS_P2;Temp;Humidity;BMP_temperature;BMP_pressure;BME280_temperature;BME280_humidity;BME280_pressure;Samples;Min_cycle;Max_cycle;Signal;HPM_P1;HPM_P2
2023/06/26 00:01:54;;;;;;;10.52;6.00;;;;;;;23.00;60.79;101368.03;6110833;19;20044;-76
2023/06/26 00:03:59;;;;;;;12.57;6.57;;;;;;;22.82;61.91;101364.19;6108635;19;20006;-74
2023/06/26 00:06:04;;;;;;;12.23;6.53;;;;;;;22.72;62.65;101358.75;6090036;19;20014;-73
2023/06/26 00:08:13;;;;;;;12.85;7.00;;;;;;;22.62;63.14;101367.66;6110966;19;20361;-73
2023/06/26 00:10:18;;;;;;;12.30;6.22;;;;;;;22.56;63.46;101374.38;6111875;19;20452;-73
2023/06/26 00:12:24;;;;;;;12.68;6.90;;;;;;;22.53;63.65;101380.84;6111820;19;20018;-73
2023/06/26 00:14:32;;;;;;;10.93;6.35;;;;;;;22.46;63.94;101379.69;6116849;19;20051;-72
2023/06/26 00:16:38;;;;;;;12.43;6.78;;;;;;;22.44;64.32;101391.50;6115610;19;20011;-74
2023/06/26 00:18:43;;;;;;;13.30;5.88;;;;;;;22.34;63.86;101384.19;6116699;19;20110;-72
2023/06/26 00:20:48;;;;;;;14.70;6.82;;;;;;;22.18;64.47;101393.56;6116638;19;20038;-73
2023/06/26 00:22:58;;;;;;;11.57;5.97;;;;;;;22.11;64.78;101393.19;6117878;19;20039;-72
2023/06/26 00:25:07;;;;;;;14.43;6.22;;;;;;;21.92;65.19;101405.38;6117370;19;20029;-73
2023/06/26 00:27:12;;;;;;;14.77;5.97;;;;;;;21.88;65.26;101397.72;6115939;19;20014;-74
2023/06/26 00:29:20;;;;;;;13.25;6.10;;;;;;;21.87;65.15;101399.53;6119500;19;20082;-75
2023/06/26 00:31:25;;;;;;;10.95;5.00;;;;;;;21.88;65.24;101403.06;6117693;19;20017;-76
2023/06/26 00:33:33;;;;;;;15.40;6.07;;;;;;;21.66;65.92;101398.56;6118354;19;20555;-76
2023/06/26 00:35:39;;;;;;;14.30;5.60;;;;;;;21.48;67.44;101396.38;6112966;19;20019;-75
2023/06/26 00:37:44;;;;;;;13.85;4.80;;;;;;;21.35;67.87;101403.56;6117608;19;20364;-77
2023/06/26 00:39:51;;;;;;;12.05;5.07;;;;;;;21.34;67.86;101399.22;6116859;19;20011;-76
2023/06/26 00:42:05;;;;;;;15.80;5.05;;;;;;;21.21;68.91;101403.81;6116865;19;20019;-74
2023/06/26 00:44:11;;;;;;;9.52;4.65;;;;;;;21.26;68.96;101410.50;6094288;19;20081;-76
2023/06/26 00:46:17;;;;;;;12.43;5.25;;;;;;;21.22;68.84;101409.03;6114922;19;21480;-76
2023/06/26 00:48:22;;;;;;;11.98;5.00;;;;;;;21.09;69.45;101407.41;6116362;19;20014;-76
2023/06/26 00:50:33;;;;;;;11.05;5.18;;;;;;;21.10;69.53;101414.47;6115342;19;20410;-76
2023/06/26 00:52:42;;;;;;;12.63;5.10;;;;;;;21.08;69.39;101408.38;6115895;19;20047;-77
2023/06/26 00:54:51;;;;;;;11.52;5.35;;;;;;;21.08;70.13;101405.72;6117939;19;20015;-77
2023/06/26 00:56:59;;;;;;;9.73;4.60;;;;;;;21.07;69.93;101409.34;6117138;19;20499;-74
2023/06/26 00:59:04;;;;;;;13.27;5.28;;;;;;;21.01;70.39;101399.97;6117213;19;20011;-76
2023/06/26 01:01:15;;;;;;;12.80;6.13;;;;;;;21.00;70.87;101409.81;6116287;19;20018;-76
2023/06/26 01:03:23;;;;;;;14.13;5.57;;;;;;;20.98;70.98;101411.72;6114267;19;20015;-75
2023/06/26 01:05:29;;;;;;;16.30;6.18;;;;;;;20.90;71.47;101408.78;6112657;19;20141;-76
2023/06/26 01:07:36;;;;;;;14.60;5.82;;;;;;;20.78;71.47;101407.06;6116213;19;20023;-75
2023/06/26 01:09:41;;;;;;;17.75;6.95;;;;;;;20.74;72.28;101403.75;6116123;19;20014;-76
2023/06/26 01:11:46;;;;;;;15.10;6.05;;;;;;;20.75;72.40;101404.63;6116525;19;20011;-77
2023/06/26 01:13:55;;;;;;;14.77;6.20;;;;;;;20.78;72.72;101409.72;6114548;19;20017;-77
2023/06/26 01:16:06;;;;;;;16.17;5.40;;;;;;;20.75;72.49;101409.97;6113576;19;20455;-76
2023/06/26 01:18:11;;;;;;;15.73;5.47;;;;;;;20.78;72.59;101410.56;6114649;19;20014;-73
2023/06/26 01:20:18;;;;;;;16.13;6.45;;;;;;;20.80;73.22;101413.09;6113938;19;20038;-74
2023/06/26 01:22:31;;;;;;;13.57;5.65;;;;;;;20.80;73.82;101413.09;6115932;19;20089;-75
2023/06/26 01:24:38;;;;;;;;;;;;;;;20.80;73.19;101415.78;6114216;19;20014;-74
2023/06/26 01:26:47;;;;;;;15.57;6.43;;;;;;;20.83;73.03;101394.22;6115065;19;19923;-73
2023/06/26 01:28:55;;;;;;;16.70;6.10;;;;;;;20.71;74.02;101408.47;6115743;19;20482;-74
2023/06/26 01:31:07;;;;;;;20.98;7.22;;;;;;;20.70;74.26;101396.09;6114698;19;20017;-72
2023/06/26 01:33:12;;;;;;;18.67;7.45;;;;;;;20.64;74.50;101402.72;6114903;19;20373;-74
2023/06/26 01:35:21;;;;;;;18.20;7.28;;;;;;;20.65;74.88;101401.75;6114506;19;20003;-73
2023/06/26 01:37:26;;;;;;;19.30;5.97;;;;;;;20.72;74.57;101404.81;6101965;19;20428;-73
2023/06/26 01:39:32;;;;;;;18.23;6.78;;;;;;;20.67;74.78;101412.31;6115581;19;20020;-73
2023/06/26 01:41:37;;;;;;;14.93;6.90;;;;;;;20.55;75.27;101414.09;6115569;19;19998;-74
2023/06/26 01:44:04;;;;;;;21.55;7.10;;;;;;;20.67;74.99;101417.66;6114282;19;20500;-73
2023/06/26 01:46:12;;;;;;;;;;;;;;;20.71;74.82;101419.16;6109888;19;20022;-73
2023/06/26 01:48:22;;;;;;;18.73;6.65;;;;;;;20.74;74.76;101418.91;6110149;19;19939;-74
2023/06/26 01:50:31;;;;;;;17.60;6.80;;;;;;;20.72;74.97;101420.84;6115855;19;20002;-72
2023/06/26 01:52:43;;;;;;;17.63;6.82;;;;;;;20.73;75.04;101415.41;6113676;19;20444;-75
2023/06/26 01:54:55;;;;;;;22.58;7.47;;;;;;;20.73;74.93;101425.25;6115456;19;20354;-74
2023/06/26 01:57:05;;;;;;;19.45;7.25;;;;;;;20.55;74.99;101409.59;6114642;19;20007;-73
2023/06/26 01:59:16;;;;;;;18.15;7.32;;;;;;;20.55;75.23;101408.75;6115385;19;20372;-73
2023/06/26 02:01:21;;;;;;;16.98;7.03;;;;;;;20.55;75.18;101408.75;6114694;19;20018;-74
2023/06/26 02:03:27;;;;;;;20.42;7.15;;;;;;;20.56;75.11;101414.00;6115710;19;20015;-73
2023/06/26 02:05:33;;;;;;;21.45;7.28;;;;;;;20.55;75.07;101414.94;6111963;19;20026;-75
2023/06/26 02:07:38;;;;;;;17.17;6.93;;;;;;;20.59;74.78;101426.25;6115409;19;20344;-73
2023/06/26 02:09:44;;;;;;;16.38;6.93;;;;;;;20.50;74.98;101418.88;6114884;19;20063;-74
2023/06/26 02:11:49;;;;;;;15.18;6.57;;;;;;;20.50;75.28;101408.19;6113162;19;20384;-73
2023/06/26 02:13:54;;;;;;;18.50;7.15;;;;;;;20.48;74.42;101413.63;6115119;19;20430;-72
2023/06/26 02:16:06;;;;;;;21.98;6.95;;;;;;;20.48;74.32;101408.28;6107538;19;20022;-72
2023/06/26 02:18:11;;;;;;;20.75;7.25;;;;;;;20.37;74.55;101413.56;6114507;19;20409;-74
2023/06/26 02:20:18;;;;;;;26.00;7.53;;;;;;;20.46;74.07;101422.72;6113970;19;20031;-73
2023/06/26 02:22:24;;;;;;;19.48;7.00;;;;;;;20.42;73.77;101432.78;6114086;19;20476;-73
2023/06/26 02:24:32;;;;;;;19.38;7.38;;;;;;;20.45;73.89;101432.56;6114716;19;20025;-72
2023/06/26 02:26:38;;;;;;;23.15;7.63;;;;;;;20.49;73.49;101436.72;6115747;19;20019;-74
2023/06/26 02:28:43;;;;;;;18.85;6.53;;;;;;;20.45;73.43;101432.56;6115964;19;20472;-73
2023/06/26 02:30:48;;;;;;;16.90;6.18;;;;;;;20.35;73.66;101434.19;6115153;19;19999;-72
2023/06/26 02:32:56;;;;;;;13.23;6.05;;;;;;;20.35;73.35;101440.41;6113478;19;20096;-73
2023/06/26 02:35:04;;;;;;;21.10;6.82;;;;;;;20.27;73.10;101432.06;6114745;19;20011;-74
2023/06/26 02:37:10;;;;;;;18.35;6.32;;;;;;;20.27;72.99;101431.22;6116804;19;20046;-73
2023/06/26 02:39:18;;;;;;;19.55;6.93;;;;;;;20.16;73.32;101438.16;6116327;19;20003;-73
2023/06/26 02:41:23;;;;;;;18.58;6.93;;;;;;;20.24;72.48;101436.78;6114469;19;20062;-73
2023/06/26 02:43:28;;;;;;;17.33;6.05;;;;;;;20.25;72.67;101447.34;6112101;19;20011;-73
2023/06/26 02:45:33;;;;;;;16.40;6.10;;;;;;;20.24;72.20;101453.63;6113935;19;20011;-74
2023/06/26 02:47:41;;;;;;;15.73;5.65;;;;;;;20.17;72.29;101458.56;6112157;19;20038;-74
2023/06/26 02:49:48;;;;;;;18.95;6.32;;;;;;;20.07;72.51;101454.00;6114961;19;20034;-75
2023/06/26 02:51:54;;;;;;;18.02;5.95;;;;;;;19.94;72.85;101459.34;6112325;19;20074;-75
2023/06/26 02:53:59;;;;;;;14.32;5.20;;;;;;;19.98;72.80;101459.97;6108565;19;20062;-73
2023/06/26 02:56:04;;;;;;;15.18;5.32;;;;;;;19.80;73.34;101456.78;6111647;19;20546;-73
2023/06/26 02:58:09;;;;;;;15.95;7.18;;;;;;;19.81;73.33;101455.84;6111650;19;20036;-72
2023/06/26 03:00:16;;;;;;;11.60;5.03;;;;;;;19.84;73.30;101460.94;6111822;19;20026;-72
2023/06/26 03:02:21;;;;;;;14.25;5.43;;;;;;;19.80;73.67;101462.09;6107589;19;20014;-72
2023/06/26 03:04:26;;;;;;;15.13;5.85;;;;;;;19.66;73.72;101474.56;6111853;19;20010;-72
2023/06/26 03:06:34;;;;;;;15.50;5.70;;;;;;;19.66;73.93;101477.25;6111014;19;20080;-72
2023/06/26 03:08:40;;;;;;;13.77;5.45;;;;;;;19.69;73.86;101481.53;6111392;19;20082;-73
2023/06/26 03:10:50;;;;;;;16.23;5.47;;;;;;;19.56;74.10;101473.47;6111573;19;20006;-74
2023/06/26 03:12:55;;;;;;;16.15;5.53;;;;;;;19.54;74.87;101478.06;6112623;19;20056;-72
2023/06/26 03:15:06;;;;;;;14.98;5.20;;;;;;;19.50;75.17;101480.06;6110453;19;20002;-72
2023/06/26 03:17:10;;;;;;;16.58;5.97;;;;;;;19.48;75.09;101479.34;6110938;19;20471;-73
2023/06/26 03:19:16;;;;;;;15.65;5.38;;;;;;;19.49;74.87;101477.53;6111257;19;20018;-73
2023/06/26 03:21:28;;;;;;;19.27;6.70;;;;;;;19.51;75.29;101483.63;6112918;19;20461;-72
2023/06/26 03:23:36;;;;;;;13.23;5.30;;;;;;;19.47;75.36;101490.94;6111884;19;20054;-76
2023/06/26 03:25:41;;;;;;;15.20;5.03;;;;;;;19.48;75.08;101489.13;6111555;19;20010;-75
2023/06/26 03:27:48;;;;;;;14.18;5.03;;;;;;;19.28;76.13;101486.00;6109878;19;20023;-75
2023/06/26 03:29:55;;;;;;;15.50;5.10;;;;;;;19.30;75.84;101496.56;6110860;19;20388;-75
2023/06/26 03:32:06;;;;;;;11.77;4.95;;;;;;;19.38;75.43;101494.25;6098189;19;20018;-77
2023/06/26 03:34:11;;;;;;;17.00;5.72;;;;;;;19.39;75.57;101497.75;6110635;19;20006;-75
2023/06/26 03:36:18;;;;;;;15.98;5.43;;;;;;;19.35;75.71;101494.44;6112431;19;20055;-75
2023/06/26 03:38:25;;;;;;;14.30;4.65;;;;;;;19.29;76.12;101497.50;6111603;19;20043;-75
2023/06/26 03:40:36;;;;;;;13.88;5.40;;;;;;;19.13;76.77;101494.16;6106997;19;20022;-76
2023/06/26 03:42:43;;;;;;;14.98;5.93;;;;;;;19.22;76.14;101498.88;6112586;19;20438;-77
2023/06/26 03:44:53;;;;;;;15.35;5.10;;;;;;;19.09;76.96;101498.84;6110882;19;20077;-76
2023/06/26 03:47:05;;;;;;;15.60;5.28;;;;;;;19.02;77.07;101503.72;6109803;19;20015;-75
2023/06/26 03:49:10;;;;;;;13.02;4.75;;;;;;;18.96;77.40;101492.63;6111598;19;20599;-75
2023/06/26 03:51:18;;;;;;;15.73;7.28;;;;;;;18.97;76.83;101497.84;6110777;19;20021;-75
2023/06/26 03:53:29;;;;;;;13.68;4.95;;;;;;;19.01;76.90;101501.13;6111928;19;20030;-76
2023/06/26 03:55:41;;;;;;;13.20;4.57;;;;;;;18.98;77.05;101501.34;6112177;19;20010;-76
2023/06/26 03:57:46;;;;;;;12.48;4.47;;;;;;;18.94;77.29;101502.53;6112125;19;20134;-76
2023/06/26 03:59:52;;;;;;;17.10;5.25;;;;;;;18.88;77.79;101502.91;6108431;19;20351;-75
2023/06/26 04:01:57;;;;;;;10.25;4.53;;;;;;;18.86;77.74;101508.34;6109441;19;20011;-75
2023/06/26 04:04:05;;;;;;;15.50;4.65;;;;;;;18.82;77.62;101513.00;6111573;19;20006;-75
2023/06/26 04:06:11;;;;;;;10.55;4.60;;;;;;;18.76;77.97;101518.72;6108421;19;20011;-75
2023/06/26 04:08:17;;;;;;;11.93;5.28;;;;;;;18.80;77.74;101519.38;6111014;19;20066;-75
2023/06/26 04:10:24;;;;;;;12.32;4.60;;;;;;;18.77;77.67;101527.56;6109663;19;20050;-75
2023/06/26 04:12:36;;;;;;;13.45;5.20;;;;;;;18.80;77.75;101543.34;6109965;19;20029;-77
2023/06/26 04:14:41;;;;;;;13.52;5.07;;;;;;;18.79;78.46;101539.81;6112386;19;20023;-76
2023/06/26 04:16:49;;;;;;;12.70;5.10;;;;;;;18.67;78.53;101547.69;6111791;19;20022;-76
2023/06/26 04:18:56;;;;;;;13.63;4.82;;;;;;;18.74;78.15;101546.38;6111660;19;20030;-72
2023/06/26 04:21:08;;;;;;;13.00;5.32;;;;;;;18.71;78.19;101554.56;6110170;19;20007;-72
2023/06/26 04:23:14;;;;;;;11.50;4.03;;;;;;;18.76;78.05;101555.16;6110679;19;20003;-76
2023/06/26 04:25:19;;;;;;;12.48;4.60;;;;;;;18.81;77.41;101545.91;6109810;19;20038;-75
2023/06/26 04:27:25;;;;;;;9.93;3.97;;;;;;;18.73;76.99;101550.84;6109618;19;20015;-75
2023/06/26 04:29:33;;;;;;;15.45;4.32;;;;;;;18.81;77.36;101555.72;6111340;19;20010;-77
2023/06/26 04:31:38;;;;;;;10.10;3.90;;;;;;;18.84;77.41;101555.50;6111018;19;20354;-76
2023/06/26 04:33:44;;;;;;;15.70;4.32;;;;;;;18.91;76.56;101561.31;6097582;19;20522;-77
2023/06/26 04:35:50;;;;;;;7.00;3.65;;;;;;;18.89;76.30;101552.56;6110450;19;20482;-78
2023/06/26 04:37:56;;;;;;;9.68;4.07;;;;;;;18.96;76.27;101554.72;6111768;19;20023;-74
2023/06/26 04:40:05;;;;;;;8.40;3.75;;;;;;;19.09;75.61;101565.47;6107505;19;20014;-76
2023/06/26 04:42:12;;;;;;;9.88;3.92;;;;;;;19.13;75.04;101566.09;6109651;19;20515;-76
2023/06/26 04:44:17;;;;;;;9.15;4.00;;;;;;;19.25;74.78;101571.50;6110412;19;20063;-76
2023/06/26 04:46:25;;;;;;;9.57;3.80;;;;;;;19.29;74.88;101566.81;6111296;19;20010;-75
2023/06/26 04:48:33;;;;;;;10.32;4.13;;;;;;;19.37;74.73;101574.31;6110555;19;20018;-76
2023/06/26 04:50:41;;;;;;;9.85;3.90;;;;;;;19.43;74.31;101579.22;6110489;19;20014;-76
2023/06/26 04:52:49;;;;;;;10.38;4.18;;;;;;;19.57;74.21;101586.31;6108681;19;20011;-77
2023/06/26 04:54:55;;;;;;;11.70;4.05;;;;;;;19.41;74.44;101586.47;6111273;19;20094;-76
2023/06/26 04:57:05;;;;;;;9.13;3.80;;;;;;;19.56;74.09;101590.78;6109232;19;20090;-76
2023/06/26 04:59:12;;;;;;;8.75;3.58;;;;;;;19.69;73.81;101583.69;6110897;19;20376;-76
2023/06/26 05:01:18;;;;;;;10.93;4.05;;;;;;;19.41;74.58;101594.47;6113995;19;20010;-73
2023/06/26 05:03:26;;;;;;;9.20;5.03;;;;;;;19.73;74.34;101597.69;6115115;19;20013;-73
2023/06/26 05:05:34;;;;;;;9.25;3.60;;;;;;;19.80;73.76;101595.47;6116625;19;20043;-74
2023/06/26 05:07:41;;;;;;;11.50;4.53;;;;;;;19.89;73.56;101592.19;6115710;19;20015;-74
2023/06/26 05:09:46;;;;;;;8.82;4.20;;;;;;;20.11;73.42;101602.22;6117679;19;20093;-73
2023/06/26 05:11:51;;;;;;;12.60;4.47;;;;;;;20.15;73.01;101609.09;6115688;19;20659;-73
2023/06/26 05:14:01;;;;;;;8.95;3.70;;;;;;;19.95;73.24;101607.75;6114665;19;20364;-72
2023/06/26 05:16:08;;;;;;;8.68;3.97;;;;;;;20.19;72.85;101610.56;6110435;19;20121;-74
2023/06/26 05:18:18;;;;;;;8.75;4.03;;;;;;;20.27;72.10;101612.72;6113585;19;20022;-73
2023/06/26 05:20:31;;;;;;;9.18;4.10;;;;;;;20.23;71.40;101617.41;6115045;19;20007;-73
2023/06/26 05:22:43;;;;;;;8.60;3.97;;;;;;;20.22;71.77;101618.38;6114412;19;20017;-74
2023/06/26 05:24:50;;;;;;;9.80;4.55;;;;;;;20.73;70.66;101621.06;6115445;19;20066;-74
2023/06/26 05:26:56;;;;;;;7.15;3.65;;;;;;;20.90;69.12;101627.88;6115764;19;20494;-74
2023/06/26 05:29:06;;;;;;;7.65;3.80;;;;;;;20.73;68.24;101636.25;6115731;19;20025;-72
2023/06/26 05:31:12;;;;;;;6.25;3.25;;;;;;;20.99;66.51;101632.56;6115230;19;20094;-73
2023/06/26 05:33:21;;;;;;;7.85;3.00;;;;;;;20.89;64.94;101636.84;6112570;19;20022;-73
2023/06/26 05:35:39;;;;;;;9.32;2.90;;;;;;;21.01;64.47;101646.69;6115283;19;20506;-73
2023/06/26 05:37:47;;;;;;;7.32;2.90;;;;;;;20.40;64.89;101648.28;6115816;19;20057;-73
2023/06/26 05:39:53;;;;;;;6.10;3.00;;;;;;;20.30;65.91;101649.84;6115305;19;20376;-73
2023/06/26 05:42:03;;;;;;;8.80;3.10;;;;;;;20.05;66.56;101656.03;6113763;19;20015;-72
2023/06/26 05:44:08;;;;;;;9.20;2.83;;;;;;;20.35;66.27;101674.44;6092423;19;20046;-72
2023/06/26 05:46:13;;;;;;;6.75;2.75;;;;;;;19.98;66.25;101674.25;6115386;19;20066;-73
2023/06/26 05:48:29;;;;;;;5.70;2.40;;;;;;;19.62;66.63;101672.19;6115037;19;20428;-74
2023/06/26 05:50:40;;;;;;;5.22;2.30;;;;;;;19.97;66.13;101677.03;6117158;19;20043;-74
2023/06/26 05:52:47;;;;;;;9.68;3.20;;;;;;;20.29;63.52;101675.69;6115118;19;20070;-72
2023/06/26 05:55:03;;;;;;;8.38;2.38;;;;;;;20.83;62.11;101680.88;6113614;19;20360;-72
2023/06/26 05:57:12;;;;;;;13.60;3.33;;;;;;;20.30;62.03;101671.22;6114902;19;20043;-74
2023/06/26 05:59:18;;;;;;;7.13;2.30;;;;;;;20.49;62.46;101677.03;6115987;19;20092;-76
2023/06/26 06:01:23;;;;;;;6.80;2.25;;;;;;;20.73;61.30;101676.31;6114324;19;20014;-77
2023/06/26 06:03:30;;;;;;;8.27;2.30;;;;;;;20.69;61.06;101672.13;6114795;19;20357;-74
2023/06/26 06:05:38;;;;;;;6.43;2.38;;;;;;;20.60;60.99;101670.97;6114990;19;20014;-76
2023/06/26 06:07:43;;;;;;;7.38;2.20;;;;;;;20.93;60.38;101683.78;6114716;19;20011;-78
2023/06/26 06:09:48;;;;;;;7.80;2.47;;;;;;;20.69;61.42;101688.16;6112455;19;19999;-74
2023/06/26 06:11:55;;;;;;;7.05;2.10;;;;;;;20.55;61.36;101687.28;6113341;19;20007;-74
2023/06/26 06:14:02;;;;;;;7.63;2.53;;;;;;;20.99;59.54;101698.53;6111648;19;20026;-73
2023/06/26 06:16:07;;;;;;;11.88;2.80;;;;;;;20.47;60.80;101689.63;6113059;19;20029;-75
2023/06/26 06:18:12;;;;;;;4.60;2.33;;;;;;;20.77;60.92;101691.13;6110898;19;20022;-75
2023/06/26 06:20:19;;;;;;;9.02;2.47;;;;;;;20.34;61.21;101704.75;6111280;19;20050;-75
2023/06/26 06:22:29;;;;;;;5.95;2.08;;;;;;;19.92;62.46;101714.69;6113856;19;20025;-74
2023/06/26 06:24:36;;;;;;;6.88;2.28;;;;;;;20.19;62.02;101714.66;6112944;19;20514;-71
2023/06/26 06:26:41;;;;;;;5.88;2.00;;;;;;;19.72;62.89;101716.84;6113848;19;20002;-72
2023/06/26 06:28:46;;;;;;;9.52;2.40;;;;;;;20.10;62.63;101717.94;6113299;19;20065;-70
2023/06/26 06:30:52;;;;;;;7.28;2.65;;;;;;;20.04;62.45;101718.38;6110978;19;20235;-71
2023/06/26 06:32:59;;;;;;;7.22;2.28;;;;;;;20.17;62.15;101721.94;6111334;19;20006;-70
2023/06/26 06:35:09;;;;;;;7.30;3.00;;;;;;;19.69;63.06;101730.38;6110910;19;20019;-74
2023/06/26 06:37:14;;;;;;;6.40;2.20;;;;;;;20.76;60.71;101730.34;6111886;19;20035;-75
2023/06/26 06:39:24;;;;;;;7.10;2.58;;;;;;;20.93;59.63;101737.22;6112806;19;20084;-74
2023/06/26 06:41:37;;;;;;;9.13;2.50;;;;;;;21.04;60.26;101731.13;6113768;19;20364;-73
2023/06/26 06:43:42;;;;;;;5.63;2.17;;;;;;;21.68;58.36;101733.69;6113154;19;20082;-72
2023/06/26 06:45:48;;;;;;;8.00;2.47;;;;;;;20.72;59.92;101733.34;6111445;19;20089;-72
2023/06/26 06:47:54;;;;;;;7.40;2.50;;;;;;;21.76;58.37;101733.97;6111245;19;20062;-71
2023/06/26 06:50:03;;;;;;;6.78;2.45;;;;;;;22.07;56.15;101740.56;6107184;19;20014;-74
2023/06/26 06:52:08;;;;;;;6.43;2.70;;;;;;;22.39;55.41;101744.50;6110883;19;20122;-72
2023/06/26 06:54:18;;;;;;;8.98;2.40;;;;;;;22.17;56.50;101754.13;6112546;19;20423;-75
2023/06/26 06:56:29;;;;;;;7.07;2.17;;;;;;;20.81;59.12;101764.78;6110538;19;19999;-74
2023/06/26 06:58:35;;;;;;;9.27;2.78;;;;;;;20.46;60.35;101765.34;6112782;19;20006;-74
2023/06/26 07:00:40;;;;;;;6.20;2.40;;;;;;;21.35;59.46;101769.88;6111557;19;20015;-75
2023/06/26 07:02:49;;;;;;;8.07;2.30;;;;;;;21.80;56.96;101761.34;6110792;19;20457;-75
2023/06/26 07:04:54;;;;;;;5.72;2.30;;;;;;;21.06;58.15;101771.94;6111763;19;20075;-75
2023/06/26 07:07:05;;;;;;;4.15;1.90;;;;;;;21.63;56.56;101766.09;6110667;19;19999;-74
2023/06/26 07:09:12;;;;;;;8.25;2.70;;;;;;;22.02;55.62;101761.47;6110808;19;20015;-73
2023/06/26 07:11:18;;;;;;;5.80;2.00;;;;;;;21.80;55.91;101772.91;6112464;19;20324;-74
2023/06/26 07:13:29;;;;;;;8.52;2.83;;;;;;;21.82;55.27;101762.94;6111863;19;20011;-75
2023/06/26 07:15:34;;;;;;;7.75;2.25;;;;;;;22.04;55.42;101774.75;6110483;19;20022;-72
2023/06/26 07:17:40;;;;;;;6.57;2.28;;;;;;;22.69;52.93;101768.91;6113007;19;20018;-74
2023/06/26 07:19:46;;;;;;;5.80;2.05;;;;;;;22.27;54.08;101781.09;6111844;19;20011;-72
2023/06/26 07:21:51;;;;;;;6.72;2.28;;;;;;;22.91;53.14;101780.69;6109580;19;20024;-75
2023/06/26 07:23:56;;;;;;;8.45;2.28;;;;;;;22.41;53.72;101788.06;6111781;19;20432;-73
2023/06/26 07:26:02;;;;;;;6.65;2.70;;;;;;;22.14;54.71;101789.13;6109379;19;20340;-72
2023/06/26 07:28:12;;;;;;;6.20;2.47;;;;;;;22.20;54.80;101786.06;6109827;19;20014;-72
2023/06/26 07:30:22;;;;;;;7.55;2.95;;;;;;;22.58;53.77;101790.34;6111800;19;20019;-71
2023/06/26 07:32:34;;;;;;;8.82;2.30;;;;;;;22.92;52.02;101793.09;6109228;19;20030;-74
2023/06/26 07:34:39;;;;;;;5.93;3.40;;;;;;;23.50;52.29;101798.41;6108971;19;20022;-72
2023/06/26 07:36:45;;;;;;;7.85;2.42;;;;;;;23.97;50.34;101799.94;6108618;19;20179;-71
2023/06/26 07:38:53;;;;;;;8.55;2.50;;;;;;;23.32;51.56;101803.41;6110424;19;20038;-71
2023/06/26 07:41:00;;;;;;;8.05;2.40;;;;;;;23.26;51.58;101803.91;6108200;19;20015;-74
2023/06/26 07:43:05;;;;;;;5.75;2.25;;;;;;;24.30;50.09;101809.75;6109553;19;20017;-74
2023/06/26 07:45:12;;;;;;;7.45;2.25;;;;;;;24.14;48.79;101805.75;6111598;19;20017;-74
2023/06/26 07:47:20;;;;;;;6.70;2.10;;;;;;;23.98;49.79;101798.97;6110903;19;20443;-74
2023/06/26 07:49:25;;;;;;;4.90;1.88;;;;;;;24.62;48.50;101808.03;6109554;19;20043;-74
2023/06/26 07:51:32;;;;;;;6.30;2.00;;;;;;;24.50;48.93;101807.25;6111242;19;20017;-74
2023/06/26 07:53:40;;;;;;;4.10;1.75;;;;;;;23.30;50.21;101816.97;6110355;19;20006;-75
2023/06/26 07:55:46;;;;;;;7.45;2.13;;;;;;;23.57;50.02;101818.41;6109466;19;20494;-75
2023/06/26 07:57:52;;;;;;;6.15;2.08;;;;;;;23.30;50.52;101818.75;6098059;19;20011;-75
2023/06/26 07:59:59;;;;;;;5.13;2.05;;;;;;;23.56;49.55;101819.38;6107230;19;20015;-72
2023/06/26 08:02:06;;;;;;;6.55;2.63;;;;;;;23.30;50.18;101829.50;6109381;19;20062;-74
2023/06/26 08:04:13;;;;;;;6.97;2.10;;;;;;;23.57;49.58;101821.94;6112026;19;20032;-75
2023/06/26 08:06:20;;;;;;;6.72;2.00;;;;;;;23.52;49.17;101832.19;6111029;19;20042;-73
2023/06/26 08:08:25;;;;;;;7.93;2.20;;;;;;;23.41;49.58;101827.69;6111916;19;20360;-73
2023/06/26 08:10:34;;;;;;;6.28;2.05;;;;;;;23.88;48.52;101830.22;6111009;19;20486;-74
2023/06/26 08:12:40;;;;;;;6.38;2.20;;;;;;;22.97;50.03;101825.81;6108988;19;20101;-74
2023/06/26 08:14:45;;;;;;;8.15;2.20;;;;;;;23.05;50.19;101831.41;6109748;19;20055;-73
2023/06/26 08:16:50;;;;;;;5.63;2.55;;;;;;;23.20;50.17;101829.38;6096484;19;20018;-76
2023/06/26 08:18:55;;;;;;;6.75;2.10;;;;;;;23.94;49.31;101829.75;6110814;19;20010;-73
2023/06/26 08:21:06;;;;;;;5.53;2.22;;;;;;;22.96;49.89;101833.00;6111248;19;20479;-74
2023/06/26 08:23:11;;;;;;;5.70;2.05;;;;;;;22.87;51.25;101848.88;6110612;19;20039;-74
2023/06/26 08:25:16;;;;;;;10.75;2.80;;;;;;;24.15;49.43;101840.56;6110325;19;20011;-75
2023/06/26 08:27:25;;;;;;;5.63;2.25;;;;;;;24.77;47.42;101838.97;6101279;19;20007;-74
2023/06/26 08:29:33;;;;;;;7.40;2.50;;;;;;;23.17;49.97;101846.56;6111419;19;20039;-74
2023/06/26 08:31:39;;;;;;;6.82;2.25;;;;;;;24.02;49.23;101838.03;6110481;19;20368;-75
2023/06/26 08:33:44;;;;;;;5.32;2.22;;;;;;;24.86;46.89;101843.59;6114360;19;20382;-73
2023/06/26 08:35:49;;;;;;;5.68;2.20;;;;;;;23.88;48.71;101851.69;6118732;19;20041;-74
2023/06/26 08:38:02;;;;;;;5.65;2.20;;;;;;;23.87;49.22;101848.16;6115560;19;20019;-71
2023/06/26 08:40:10;;;;;;;6.10;2.20;;;;;;;23.29;49.62;101850.09;6110976;19;20371;-71
2023/06/26 08:42:15;;;;;;;4.20;1.88;;;;;;;23.89;49.07;101856.09;6118015;19;20446;-71
2023/06/26 08:44:24;;;;;;;8.73;2.17;;;;;;;24.17;49.18;101852.03;6117168;19;20018;-73
2023/06/26 08:46:34;;;;;;;7.25;2.53;;;;;;;23.91;48.25;101862.22;6116751;19;20018;-74
2023/06/26 08:48:40;;;;;;;6.32;2.38;;;;;;;23.35;48.33;101864.84;6118078;19;20355;-73
2023/06/26 08:50:47;;;;;;;5.97;2.30;;;;;;;23.31;49.02;101866.09;6118338;19;20062;-74
2023/06/26 08:53:00;;;;;;;5.07;1.98;;;;;;;24.24;46.63;101852.38;6117277;19;20330;-73
2023/06/26 08:55:11;;;;;;;5.68;2.00;;;;;;;23.26;47.44;101870.94;6118211;19;20015;-73
2023/06/26 08:57:21;;;;;;;5.65;2.22;;;;;;;24.12;46.56;101862.31;6118518;19;20026;-74
2023/06/26 08:59:33;;;;;;;6.03;1.95;;;;;;;24.60;46.01;101867.31;6118930;19;20015;-75
2023/06/26 09:01:39;;;;;;;5.50;2.30;;;;;;;24.26;46.46;101861.16;6121623;19;20010;-74
2023/06/26 09:03:48;;;;;;;4.43;2.15;;;;;;;25.12;45.41;101859.31;6119891;19;20011;-74
2023/06/26 09:05:56;;;;;;;6.07;2.00;;;;;;;25.79;44.76;101864.19;6116469;19;20332;-75
2023/06/26 09:08:03;;;;;;;4.60;1.85;;;;;;;25.59;43.91;101867.81;6113799;19;20010;-73
2023/06/26 09:10:12;;;;;;;3.67;2.15;;;;;;;25.34;44.02;101872.66;6115883;19;20027;-73
2023/06/26 09:12:20;;;;;;;5.45;2.08;;;;;;;25.65;43.99;101879.91;6113593;19;20010;-75
2023/06/26 09:14:30;;;;;;;6.43;2.13;;;;;;;26.18;43.94;101876.97;6115245;19;20090;-73
2023/06/26 09:16:43;;;;;;;5.43;2.10;;;;;;;25.90;43.01;101883.97;6115471;19;20392;-75
2023/06/26 09:18:49;;;;;;;7.53;2.50;;;;;;;25.36;44.54;101892.22;6114117;19;20017;-74
2023/06/26 09:20:54;;;;;;;4.63;2.08;;;;;;;26.37;42.99;101893.16;6116796;19;19999;-74
2023/06/26 09:23:03;;;;;;;5.97;2.30;;;;;;;25.74;43.00;101897.91;6117790;19;20014;-73
2023/06/26 09:25:11;;;;;;;7.43;2.55;;;;;;;25.19;45.89;101893.66;6118321;19;20482;-74
2023/06/26 09:27:18;;;;;;;5.25;2.47;;;;;;;24.17;47.39;101910.25;6118068;19;20019;-75
2023/06/26 09:29:23;;;;;;;5.10;2.30;;;;;;;24.75;45.74;101910.88;6118024;19;20518;-76
2023/06/26 09:31:29;;;;;;;7.13;2.50;;;;;;;23.59;48.39;101913.03;6118473;19;20015;-75
2023/06/26 09:33:49;;;;;;;6.05;2.60;;;;;;;25.21;45.71;101909.66;6105941;19;20368;-75
2023/06/26 09:35:54;;;;;;;3.80;2.10;;;;;;;25.51;44.28;101914.22;6117600;19;20089;-73
2023/06/26 09:37:59;;;;;;;7.28;2.55;;;;;;;25.26;45.17;101915.50;6113966;19;20499;-74
2023/06/26 09:40:07;;;;;;;6.32;2.20;;;;;;;26.16;43.44;101904.03;6115877;19;20011;-75
2023/06/26 09:42:16;;;;;;;7.35;2.40;;;;;;;25.86;44.09;101920.22;6113989;19;20424;-73
2023/06/26 09:44:22;;;;;;;10.25;2.50;;;;;;;24.62;45.97;101926.28;6113417;19;20034;-73
2023/06/26 09:46:29;;;;;;;6.20;2.65;;;;;;;25.25;45.44;101926.41;6113886;19;20019;-76
2023/06/26 09:48:34;;;;;;;6.72;2.30;;;;;;;24.85;46.04;101937.81;6115133;19;20349;-72
2023/06/26 09:50:39;;;;;;;5.07;2.30;;;;;;;24.63;45.94;101928.00;6113878;19;20029;-72